Time;durP1;ratioP1;P1;durP2;ratioP2;P2;SDS_P1;SDS_P2;PMS_P1;PMS_P2;Temp;Humidity;BMP_temperature;BMP_pressure;BME280_temperature;BME280_humidity;BME280_pressure;Samples;Min_cycle;Max_cycle;Signal;HPM_P1;HPM_P2
2021/01/20 00:01:49;;;;;;;16.00;8.80;;;2.90;99.90;;;;;;5013083;28;20128;-78
2021/01/20 00:04:16;;;;;;;9.95;7.32;;;2.90;99.90;;;;;;5015700;28;20058;-78
2021/01/20 00:06:42;;;;;;;10.02;6.30;;;2.90;99.90;;;;;;5029856;28;20151;-78
2021/01/20 00:09:09;;;;;;;11.02;7.63;;;3.00;99.90;;;;;;5005141;28;20050;-78
2021/01/20 00:11:35;;;;;;;13.23;7.40;;;2.90;99.90;;;;;;5012023;28;20129;-78
2021/01/20 00:14:02;;;;;;;9.80;4.50;;;3.30;99.90;;;;;;5032435;28;20050;-78
2021/01/20 00:16:28;;;;;;;11.77;5.20;;;3.40;99.90;;;;;;5030674;28;20049;-78
2021/01/20 00:18:55;;;;;;;7.22;4.15;;;3.50;99.90;;;;;;5016082;28;20049;-78
2021/01/20 00:21:23;;;;;;;8.30;4.43;;;3.50;99.90;;;;;;5022360;28;20075;-78
2021/01/20 00:23:50;;;;;;;7.25;4.03;;;3.50;99.90;;;;;;5031433;28;20060;-78
2021/01/20 00:26:17;;;;;;;11.13;5.05;;;3.60;99.90;;;;;;5006616;28;20119;-78
2021/01/20 00:28:44;;;;;;;8.65;5.03;;;3.60;99.90;;;;;;5026513;28;20037;-78
2021/01/20 00:31:11;;;;;;;8.73;4.25;;;3.50;99.90;;;;;;5014243;28;20073;-78
2021/01/20 00:33:39;;;;;;;5.85;2.38;;;3.60;99.90;;;;;;5011660;28;20080;-78
2021/01/20 00:36:06;;;;;;;19.55;7.65;;;3.60;99.90;;;;;;5023733;28;20044;-78
2021/01/20 00:38:34;;;;;;;19.00;10.27;;;3.50;99.90;;;;;;5012587;28;20049;-78
2021/01/20 00:41:01;;;;;;;14.27;9.18;;;3.40;99.90;;;;;;5030980;28;20123;-78
2021/01/20 00:43:28;;;;;;;12.93;6.85;;;3.20;99.90;;;;;;5025442;28;20053;-78
2021/01/20 00:45:54;;;;;;;9.32;5.20;;;3.20;99.90;;;;;;5013431;28;20421;-78
2021/01/20 00:48:21;;;;;;;8.80;2.92;;;3.20;99.90;;;;;;5017326;28;20056;-78
2021/01/20 00:50:52;;;;;;;10.93;4.85;;;3.40;99.90;;;;;;5028858;28;20065;-78
2021/01/20 00:53:18;;;;;;;7.55;3.83;;;3.50;99.90;;;;;;5029868;28;20053;-78
2021/01/20 00:55:45;;;;;;;3.45;2.70;;;3.60;99.90;;;;;;5014434;28;20049;-78
2021/01/20 00:58:12;;;;;;;6.65;4.00;;;3.60;99.90;;;;;;5016512;28;20060;-78
2021/01/20 01:00:38;;;;;;;10.88;5.57;;;3.60;99.90;;;;;;5006678;28;20521;-78
2021/01/20 01:03:05;;;;;;;12.15;5.35;;;3.50;99.90;;;;;;5032221;28;20060;-79
2021/01/20 01:05:33;;;;;;;14.75;5.97;;;3.40;99.90;;;;;;5010004;28;20057;-78
2021/01/20 01:07:59;;;;;;;11.55;5.75;;;3.30;99.90;;;;;;5028365;28;20050;-78
2021/01/20 01:10:26;;;;;;;12.52;5.95;;;3.30;99.90;;;;;;5020274;28;20053;-78
2021/01/20 01:12:53;;;;;;;13.75;5.57;;;3.30;99.90;;;;;;5032233;28;20050;-78
2021/01/20 01:15:20;;;;;;;9.95;5.05;;;3.30;99.90;;;;;;5002477;28;20049;-78
2021/01/20 01:17:46;;;;;;;13.50;5.85;;;3.30;99.90;;;;;;5016301;28;20057;-78
2021/01/20 01:20:13;;;;;;;9.07;4.80;;;3.30;99.90;;;;;;5013727;28;20132;-78
2021/01/20 01:22:40;;;;;;;8.23;5.65;;;3.30;99.90;;;;;;5016282;28;20052;-78
2021/01/20 01:25:07;;;;;;;10.05;5.32;;;3.30;99.90;;;;;;5030085;28;20057;-78
2021/01/20 01:27:34;;;;;;;13.88;5.60;;;3.30;99.90;;;;;;5028711;28;20054;-78
2021/01/20 01:30:00;;;;;;;10.23;4.95;;;3.30;99.90;;;;;;5024768;28;20716;-78
2021/01/20 01:32:27;;;;;;;13.43;5.55;;;3.30;99.90;;;;;;5021687;28;20045;-78
2021/01/20 01:34:53;;;;;;;12.82;4.90;;;3.20;99.90;;;;;;5016636;28;20474;-78
2021/01/20 01:37:20;;;;;;;10.05;5.50;;;3.20;99.90;;;;;;5011820;28;20140;-78
2021/01/20 01:39:47;;;;;;;9.82;4.63;;;3.30;99.90;;;;;;5018333;28;20053;-78
2021/01/20 01:42:13;;;;;;;11.90;5.07;;;3.30;99.90;;;;;;5012073;28;20427;-78
2021/01/20 01:44:40;;;;;;;9.15;3.72;;;3.40;99.90;;;;;;5028870;28;20054;-78
2021/01/20 01:47:07;;;;;;;7.90;2.22;;;3.60;99.90;;;;;;5030640;28;20045;-78
2021/01/20 01:49:34;;;;;;;6.18;2.35;;;3.60;99.90;;;;;;5031129;28;20076;-78
2021/01/20 01:52:01;;;;;;;9.68;4.38;;;3.70;99.90;;;;;;5026643;28;20056;-78
2021/01/20 01:54:28;;;;;;;7.90;4.85;;;3.70;99.90;;;;;;5030216;28;20276;-78
2021/01/20 01:56:55;;;;;;;12.23;6.60;;;3.60;99.90;;;;;;5015743;28;20049;-78
2021/01/20 01:59:22;;;;;;;11.57;6.28;;;3.40;99.90;;;;;;5009339;28;20733;-78
2021/01/20 02:01:50;;;;;;;11.80;6.20;;;3.20;99.90;;;;;;5001928;28;20054;-78
2021/01/20 02:04:16;;;;;;;9.20;5.15;;;3.10;99.90;;;;;;5031187;28;20099;-78
2021/01/20 02:06:43;;;;;;;6.88;3.80;;;3.10;99.90;;;;;;5027907;28;20450;-78
2021/01/20 02:09:10;;;;;;;7.95;4.07;;;3.10;99.90;;;;;;5013123;28;20049;-78
2021/01/20 02:12:03;;;;;;;8.35;4.10;;;3.20;99.90;;;;;;5023444;28;20450;-78
2021/01/20 02:14:49;;;;;;;4.95;2.83;;;3.10;99.90;;;;;;5018838;28;20049;-79
2021/01/20 02:17:44;;;;;;;6.82;3.15;;;3.10;99.90;;;;;;5024060;28;20057;-78
2021/01/20 02:20:31;;;;;;;8.07;3.47;;;3.20;99.90;;;;;;5021158;28;20054;-79
2021/01/20 02:23:11;;;;;;;5.97;3.05;;;3.20;99.90;;;;;;5011303;28;20516;-78
2021/01/20 02:25:59;;;;;;;9.50;1.83;;;3.20;99.90;;;;;;5015754;28;20045;-78
2021/01/20 02:28:49;;;;;;;3.20;2.20;;;3.50;99.90;;;;;;5030079;28;20052;-78
2021/01/20 02:31:18;;;;;;;8.57;3.75;;;3.60;99.90;;;;;;5012040;28;20056;-78
2021/01/20 02:33:46;;;;;;;9.50;3.95;;;3.50;99.90;;;;;;5011027;28;20557;-78
2021/01/20 02:36:15;;;;;;;10.00;4.90;;;3.50;99.90;;;;;;5004555;28;20124;-78
2021/01/20 02:38:43;;;;;;;8.35;5.50;;;3.40;99.90;;;;;;5025671;28;20680;-78
2021/01/20 02:41:22;;;;;;;9.18;4.18;;;3.30;99.90;;;;;;5028620;28;20071;-78
2021/01/20 02:43:49;;;;;;;17.55;8.40;;;3.20;99.90;;;;;;5011757;28;20053;-79
2021/01/20 02:46:15;;;;;;;12.73;5.85;;;3.10;99.90;;;;;;5027029;28;20053;-79
2021/01/20 02:48:42;;;;;;;8.13;5.05;;;3.10;99.90;;;;;;5014149;28;20057;-78
2021/01/20 02:51:11;;;;;;;10.38;4.57;;;3.10;99.90;;;;;;5006110;28;20048;-78
2021/01/20 02:53:38;;;;;;;6.95;3.85;;;3.20;99.90;;;;;;5024223;28;20049;-78
2021/01/20 02:56:07;;;;;;;8.93;4.18;;;3.10;99.90;;;;;;5013117;28;20049;-78
2021/01/20 02:58:36;;;;;;;10.73;4.82;;;3.20;99.90;;;;;;5025687;28;20048;-78
2021/01/20 03:01:04;;;;;;;9.52;4.50;;;3.20;99.90;;;;;;5028337;28;20052;-78
2021/01/20 03:03:33;;;;;;;6.25;3.45;;;3.20;99.90;;;;;;5027426;28;20053;-79
2021/01/20 03:06:02;;;;;;;5.13;2.38;;;3.20;99.90;;;;;;5012368;28;20053;-79
2021/01/20 03:08:29;;;;;;;6.10;3.03;;;3.30;99.90;;;;;;5014247;28;20045;-79
2021/01/20 03:11:00;;;;;;;4.45;2.15;;;3.20;99.90;;;;;;5028385;28;20414;-79
2021/01/20 03:13:27;;;;;;;7.45;3.38;;;3.30;99.90;;;;;;5020319;28;20056;-79
2021/01/20 03:15:55;;;;;;;3.70;2.75;;;3.30;99.90;;;;;;5023413;28;20049;-78
2021/01/20 03:18:22;;;;;;;7.22;3.83;;;3.30;99.90;;;;;;5012705;28;20148;-78
2021/01/20 03:20:49;;;;;;;4.20;2.65;;;3.40;99.90;;;;;;5009212;28;20077;-78
2021/01/20 03:23:15;;;;;;;5.93;3.70;;;3.30;99.90;;;;;;5013075;28;20045;-78
2021/01/20 03:25:42;;;;;;;9.70;4.85;;;3.30;99.90;;;;;;5007406;28;20053;-78
2021/01/20 03:28:08;;;;;;;7.10;4.25;;;3.30;99.90;;;;;;5016953;28;20061;-78
2021/01/20 03:30:35;;;;;;;8.80;4.50;;;3.30;99.90;;;;;;5012767;28;20042;-78
2021/01/20 03:33:02;;;;;;;7.40;5.10;;;3.20;99.90;;;;;;5009599;28;20069;-78
2021/01/20 03:35:28;;;;;;;8.93;4.70;;;3.20;99.90;;;;;;5020492;28;20054;-78
2021/01/20 03:37:55;;;;;;;10.82;3.15;;;3.10;99.90;;;;;;5012948;28;20483;-78
2021/01/20 03:40:21;;;;;;;4.85;3.03;;;3.10;99.90;;;;;;5031067;28;20429;-78
2021/01/20 03:42:48;;;;;;;8.50;2.97;;;3.10;99.90;;;;;;5028809;28;20064;-78
2021/01/20 03:45:15;;;;;;;10.65;3.38;;;3.20;99.90;;;;;;5029423;28;20050;-78
2021/01/20 03:47:41;;;;;;;6.97;3.08;;;3.20;99.90;;;;;;5011414;28;20155;-78
2021/01/20 03:50:10;;;;;;;6.97;3.80;;;3.30;99.90;;;;;;5025255;28;20466;-78
2021/01/20 03:52:36;;;;;;;8.40;4.57;;;3.30;99.90;;;;;;5013029;28;20049;-78
2021/01/20 03:55:04;;;;;;;6.60;3.00;;;3.20;99.90;;;;;;5009520;28;20081;-78
2021/01/20 03:57:30;;;;;;;5.45;3.65;;;3.20;99.90;;;;;;5020826;28;20066;-78
2021/01/20 03:59:57;;;;;;;13.27;5.90;;;3.10;99.90;;;;;;5008535;28;20091;-78
2021/01/20 04:02:24;;;;;;;9.25;5.82;;;2.80;99.90;;;;;;5012571;28;20053;-78
2021/01/20 04:04:51;;;;;;;9.10;5.78;;;2.60;99.90;;;;;;5007619;28;20479;-78
2021/01/20 04:07:18;;;;;;;12.57;5.72;;;2.60;99.90;;;;;;5025407;28;20045;-78
2021/01/20 04:09:44;;;;;;;11.68;7.07;;;2.50;99.90;;;;;;5016880;28;20057;-78
2021/01/20 04:12:11;;;;;;;11.07;4.20;;;2.50;99.90;;;;;;5031143;28;20124;-78
2021/01/20 04:14:38;;;;;;;8.27;4.43;;;2.60;99.90;;;;;;5015995;28;20046;-78
2021/01/20 04:17:05;;;;;;;9.05;5.43;;;2.60;99.90;;;;;;5031273;28;20049;-78
2021/01/20 04:19:32;;;;;;;5.40;3.78;;;2.70;99.90;;;;;;5014570;28;20046;-78
2021/01/20 04:21:58;;;;;;;6.28;4.03;;;2.70;99.90;;;;;;5013673;28;20052;-78
2021/01/20 04:24:25;;;;;;;7.28;3.83;;;2.70;99.90;;;;;;5031102;28;20049;-78
2021/01/20 04:26:51;;;;;;;9.73;3.55;;;2.80;99.90;;;;;;5022582;28;20072;-78
2021/01/20 04:29:18;;;;;;;6.90;4.25;;;2.80;99.90;;;;;;5006454;28;20052;-78
2021/01/20 04:31:44;;;;;;;7.85;3.33;;;2.80;99.90;;;;;;5016324;28;20045;-78
2021/01/20 04:34:11;;;;;;;9.48;3.88;;;2.80;99.90;;;;;;5027528;28;20046;-78
2021/01/20 04:36:37;;;;;;;21.27;9.43;;;2.90;99.90;;;;;;5031319;28;20379;-78
2021/01/20 04:39:04;;;;;;;5.60;3.55;;;2.90;99.90;;;;;;5025127;28;20053;-78
2021/01/20 04:41:33;;;;;;;5.72;3.67;;;2.80;99.90;;;;;;5029449;28;20056;-78
2021/01/20 04:43:59;;;;;;;10.77;5.50;;;2.80;99.90;;;;;;5006349;28;20049;-78
2021/01/20 04:46:28;;;;;;;6.00;3.42;;;2.80;99.90;;;;;;5029739;28;20056;-78
2021/01/20 04:48:55;;;;;;;8.25;3.30;;;2.90;99.90;;;;;;4999835;28;20109;-78
2021/01/20 04:51:24;;;;;;;7.25;4.53;;;2.90;99.90;;;;;;5028933;28;20099;-78
2021/01/20 04:53:56;;;;;;;3.97;2.72;;;2.90;99.90;;;;;;5026636;28;20483;-78
2021/01/20 04:56:23;;;;;;;4.22;3.08;;;2.90;99.90;;;;;;5006080;28;20057;-78
2021/01/20 04:58:55;;;;;;;6.63;2.90;;;2.80;99.90;;;;;;5005680;28;20439;-78
2021/01/20 05:01:22;;;;;;;5.22;2.70;;;2.90;99.90;;;;;;5032391;28;20136;-78
2021/01/20 05:03:50;;;;;;;6.38;3.20;;;2.90;99.90;;;;;;5030901;28;20132;-78
2021/01/20 05:06:17;;;;;;;8.95;3.97;;;3.00;99.90;;;;;;5029736;28;20089;-78
2021/01/20 05:08:44;;;;;;;5.32;3.17;;;3.00;99.90;;;;;;5027846;28;20052;-78
2021/01/20 05:11:10;;;;;;;12.70;5.85;;;3.00;99.90;;;;;;5013734;28;20041;-78
2021/01/20 05:13:37;;;;;;;12.75;3.95;;;3.00;99.90;;;;;;5006006;28;20046;-78
2021/01/20 05:16:04;;;;;;;6.38;2.15;;;3.00;99.90;;;;;;5003538;28;20061;-78
2021/01/20 05:18:47;;;;;;;6.78;2.60;;;3.10;99.90;;;;;;5020055;28;20100;-78
2021/01/20 05:21:18;;;;;;;3.35;2.22;;;3.10;99.90;;;;;;5008241;28;20060;-78
2021/01/20 05:23:44;;;;;;;4.80;1.50;;;3.10;99.90;;;;;;5026354;28;20061;-78
2021/01/20 05:26:10;;;;;;;6.50;1.40;;;3.20;99.90;;;;;;5024613;28;20615;-78
2021/01/20 05:28:39;;;;;;;4.00;1.35;;;3.20;99.90;;;;;;5025125;28;20052;-78
2021/01/20 05:31:06;;;;;;;7.72;2.00;;;3.20;99.90;;;;;;5014069;28;20494;-78
2021/01/20 05:33:38;;;;;;;5.45;2.90;;;3.20;99.90;;;;;;5009570;28;20045;-78
2021/01/20 05:36:15;;;;;;;6.90;2.97;;;3.10;99.90;;;;;;5028334;28;20060;-78
2021/01/20 05:38:45;;;;;;;3.83;2.80;;;3.10;99.90;;;;;;5028180;28;20167;-78
2021/01/20 05:41:20;;;;;;;11.50;2.42;;;3.10;99.90;;;;;;5008508;28;20074;-78
2021/01/20 05:43:51;;;;;;;8.43;3.25;;;3.20;99.90;;;;;;5022885;28;20050;-78
2021/01/20 05:46:38;;;;;;;9.77;5.32;;;3.20;99.90;;;;;;5009815;28;20517;-78
2021/01/20 05:49:06;;;;;;;8.50;4.85;;;3.20;99.90;;;;;;5009640;28;20050;-79
2021/01/20 05:51:41;;;;;;;8.25;4.53;;;3.20;99.90;;;;;;5012013;28;20045;-79
2021/01/20 05:54:08;;;;;;;9.57;5.13;;;3.10;99.90;;;;;;5030082;28;20048;-79
2021/01/20 05:56:35;;;;;;;12.95;7.80;;;3.10;99.90;;;;;;5007695;28;20056;-79
2021/01/20 05:59:09;;;;;;;9.38;4.53;;;3.10;99.90;;;;;;5007920;28;20057;-79
2021/01/20 06:01:38;;;;;;;4.00;1.52;;;3.10;99.90;;;;;;5011262;28;20055;-79
2021/01/20 06:04:06;;;;;;;11.20;6.68;;;3.20;99.90;;;;;;5025930;28;20418;-79
2021/01/20 06:06:35;;;;;;;18.85;11.07;;;3.30;99.90;;;;;;5012575;28;20045;-79
2021/01/20 06:09:02;;;;;;;10.68;6.03;;;3.30;99.90;;;;;;5025154;28;20544;-79
2021/01/20 06:11:29;;;;;;;7.20;1.88;;;3.40;99.90;;;;;;5022275;28;21044;-78
2021/01/20 06:13:55;;;;;;;3.67;1.10;;;3.50;99.90;;;;;;5029142;28;20374;-78
2021/01/20 06:16:25;;;;;;;5.50;1.45;;;3.60;99.90;;;;;;5029910;28;20049;-78
2021/01/20 06:18:55;;;;;;;8.88;2.70;;;3.60;99.90;;;;;;5031519;28;20445;-78
2021/01/20 06:21:26;;;;;;;3.85;1.83;;;3.60;99.90;;;;;;5027824;28;20103;-80
2021/01/20 06:23:59;;;;;;;4.03;1.55;;;3.70;99.90;;;;;;5031785;28;20459;-80
2021/01/20 06:26:26;;;;;;;13.05;3.63;;;3.70;99.90;;;;;;5010747;28;20050;-81
2021/01/20 06:29:02;;;;;;;5.82;2.08;;;3.80;99.90;;;;;;5015437;28;20052;-81
2021/01/20 06:31:29;;;;;;;7.40;1.75;;;3.70;99.90;;;;;;5015474;28;20056;-81
2021/01/20 06:34:02;;;;;;;8.57;2.45;;;3.80;99.90;;;;;;5030523;28;20038;-80
2021/01/20 06:36:35;;;;;;;;;;;3.80;99.90;;;;;;5024846;28;20050;-80
2021/01/20 06:39:27;;;;;;;5.93;2.28;;;3.80;99.90;;;;;;5010775;28;20603;-80
2021/01/20 06:41:55;;;;;;;7.22;2.55;;;3.90;99.90;;;;;;5015926;28;20042;-80
2021/01/20 06:44:22;;;;;;;6.40;1.67;;;3.80;99.90;;;;;;5020455;28;20414;-80
2021/01/20 06:46:57;;;;;;;9.75;2.13;;;3.80;99.90;;;;;;5010191;28;20067;-80
2021/01/20 06:49:33;;;;;;;6.50;2.67;;;3.70;99.90;;;;;;5024304;28;20750;-80
2021/01/20 06:52:09;;;;;;;10.75;2.35;;;3.70;99.90;;;;;;5011092;28;20041;-80
2021/01/20 06:54:44;;;;;;;3.90;1.65;;;3.70;99.90;;;;;;5031365;28;20044;-81
2021/01/20 06:57:30;;;;;;;7.18;1.92;;;3.70;99.90;;;;;;5017156;28;20144;-79
2021/01/20 07:00:10;;;;;;;11.15;6.15;;;3.70;99.90;;;;;;5028889;28;20048;-79
2021/01/20 07:02:56;;;;;;;8.48;3.40;;;3.70;99.90;;;;;;5006495;28;20052;-79
2021/01/20 07:05:44;;;;;;;7.07;2.08;;;3.70;99.90;;;;;;5031283;28;20054;-80
2021/01/20 07:08:11;;;;;;;7.78;3.63;;;3.70;99.90;;;;;;5028586;28;20137;-80
2021/01/20 07:11:00;;;;;;;6.00;3.75;;;3.70;99.90;;;;;;5030277;28;20049;-80
2021/01/20 07:13:31;;;;;;;11.05;2.85;;;3.80;99.90;;;;;;5026068;28;20041;-79
2021/01/20 07:15:59;;;;;;;5.63;3.40;;;3.80;99.90;;;;;;5028593;28;20406;-79
2021/01/20 07:18:26;;;;;;;5.63;3.15;;;3.80;99.90;;;;;;5005397;28;20065;-79
2021/01/20 07:20:54;;;;;;;9.68;4.47;;;3.80;99.90;;;;;;5018126;28;20060;-79
2021/01/20 07:23:21;;;;;;;3.88;2.60;;;3.90;99.90;;;;;;5016111;28;20278;-79
2021/01/20 07:25:50;;;;;;;6.57;3.25;;;3.90;99.90;;;;;;5013042;28;20399;-79
2021/01/20 07:28:18;;;;;;;7.47;3.00;;;3.90;99.90;;;;;;5011551;28;20049;-79
2021/01/20 07:30:44;;;;;;;10.63;3.08;;;3.90;99.90;;;;;;5007075;28;20050;-79
2021/01/20 07:33:19;;;;;;;6.13;3.22;;;4.00;99.90;;;;;;4997738;28;20060;-79
2021/01/20 07:35:47;;;;;;;10.43;3.85;;;4.00;99.90;;;;;;5011676;28;20049;-79
2021/01/20 07:38:14;;;;;;;9.13;4.68;;;4.00;99.90;;;;;;5030920;28;20057;-79
2021/01/20 07:40:43;;;;;;;11.57;4.47;;;4.00;99.90;;;;;;5032333;28;20080;-79
2021/01/20 07:43:23;;;;;;;8.85;3.22;;;4.10;99.90;;;;;;5032264;28;20045;-79
2021/01/20 07:45:53;;;;;;;6.47;3.58;;;4.10;99.90;;;;;;5002046;28;20391;-79
2021/01/20 07:48:30;;;;;;;13.05;2.65;;;4.20;99.90;;;;;;5035636;28;20538;-79
2021/01/20 07:50:57;;;;;;;10.48;3.72;;;4.30;99.90;;;;;;5016499;28;20129;-79
2021/01/20 07:53:24;;;;;;;4.60;2.50;;;4.40;99.90;;;;;;5020663;28;20482;-79
2021/01/20 07:55:55;;;;;;;9.13;2.80;;;4.40;99.90;;;;;;5024680;28;20052;-79
2021/01/20 07:58:26;;;;;;;4.95;1.60;;;4.50;99.90;;;;;;5033754;28;20053;-79
2021/01/20 08:00:53;;;;;;;7.18;1.65;;;4.60;99.90;;;;;;5032279;28;20046;-80
2021/01/20 08:03:36;;;;;;;5.68;1.00;;;4.70;99.90;;;;;;5031726;28;20063;-79
2021/01/20 08:06:07;;;;;;;5.07;1.92;;;4.80;99.90;;;;;;5033586;28;20057;-79
2021/01/20 08:08:49;;;;;;;3.13;1.50;;;4.80;99.90;;;;;;5031975;28;20050;-79
2021/01/20 08:11:16;;;;;;;4.00;1.00;;;5.00;99.90;;;;;;5016106;28;20046;-79
2021/01/20 08:13:43;;;;;;;4.80;1.10;;;5.00;99.90;;;;;;5029622;28;20501;-79
2021/01/20 08:16:10;;;;;;;4.35;1.42;;;5.10;99.90;;;;;;5031624;28;20052;-79
2021/01/20 08:18:37;;;;;;;6.40;1.30;;;5.20;99.90;;;;;;5031444;28;20072;-79
2021/01/20 08:21:08;;;;;;;4.82;1.23;;;5.20;99.90;;;;;;5013057;28;20139;-79
2021/01/20 08:23:57;;;;;;;6.47;1.42;;;5.20;99.90;;;;;;5034071;28;20054;-79
2021/01/20 08:26:26;;;;;;;7.38;2.03;;;5.20;99.90;;;;;;5027928;28;20060;-79
2021/01/20 08:29:05;;;;;;;8.55;1.25;;;5.30;99.90;;;;;;5028193;28;20045;-79
2021/01/20 08:31:32;;;;;;;5.43;1.55;;;5.30;99.90;;;;;;5023925;28;20049;-79
2021/01/20 08:34:17;;;;;;;5.72;1.42;;;5.30;99.90;;;;;;5019334;28;20045;-79
2021/01/20 08:37:04;;;;;;;3.67;1.05;;;5.40;99.90;;;;;;5033368;28;20402;-79
2021/01/20 08:39:37;;;;;;;1.83;0.80;;;5.50;99.90;;;;;;5028777;28;20053;-79
2021/01/20 08:42:21;;;;;;;8.25;0.90;;;5.60;99.90;;;;;;5031327;28;20522;-79
2021/01/20 08:45:08;;;;;;;1.98;0.90;;;5.60;99.90;;;;;;5020192;28;20057;-79
2021/01/20 08:47:41;;;;;;;3.63;0.80;;;5.70;99.90;;;;;;5025112;28;20045;-79
2021/01/20 08:50:09;;;;;;;10.38;1.40;;;5.80;99.90;;;;;;5013179;28;20277;-79
2021/01/20 08:52:52;;;;;;;4.18;1.00;;;5.80;99.90;;;;;;5015589;28;20045;-79
2021/01/20 08:55:26;;;;;;;7.75;0.85;;;5.90;99.90;;;;;;5003266;28;20129;-79
2021/01/20 08:58:21;;;;;;;1.70;0.80;;;6.00;99.90;;;;;;5015553;28;20049;-79
2021/01/20 09:01:09;;;;;;;4.88;0.75;;;6.10;99.90;;;;;;5012589;28;20057;-79
2021/01/20 09:03:37;;;;;;;6.45;1.02;;;6.20;99.90;;;;;;5022804;28;20076;-79
2021/01/20 09:06:15;;;;;;;2.75;0.80;;;6.30;99.90;;;;;;5030546;28;20463;-79
2021/01/20 09:08:42;;;;;;;8.07;1.10;;;6.40;99.90;;;;;;5027935;28;20053;-79
2021/01/20 09:11:08;;;;;;;2.28;0.88;;;6.60;99.90;;;;;;5001392;28;20050;-79
2021/01/20 09:13:35;;;;;;;3.75;1.00;;;6.80;99.90;;;;;;5029933;28;20053;-79
2021/01/20 09:16:01;;;;;;;3.53;1.60;;;7.10;99.90;;;;;;5030423;28;20049;-79
2021/01/20 09:18:28;;;;;;;3.95;1.10;;;7.00;99.90;;;;;;5023767;28;20046;-79
2021/01/20 09:20:56;;;;;;;4.55;1.15;;;7.10;99.90;;;;;;5021283;28;20099;-79
2021/01/20 09:23:23;;;;;;;4.10;0.80;;;7.10;99.90;;;;;;5004810;28;20486;-79
2021/01/20 09:25:50;;;;;;;2.40;0.90;;;7.20;99.90;;;;;;5005768;28;20047;-79
2021/01/20 09:28:16;;;;;;;1.92;0.80;;;7.20;99.90;;;;;;5031819;28;20514;-79
2021/01/20 09:30:43;;;;;;;2.55;0.73;;;7.10;99.90;;;;;;5014980;28;20049;-79
2021/01/20 09:33:10;;;;;;;3.05;0.80;;;7.10;99.90;;;;;;5029755;28;20133;-79
2021/01/20 09:35:38;;;;;;;6.85;1.60;;;7.20;99.90;;;;;;5031048;28;20049;-79
2021/01/20 09:38:05;;;;;;;5.78;1.65;;;7.50;99.90;;;;;;5013010;28;20061;-80
2021/01/20 09:40:32;;;;;;;1.75;1.05;;;7.50;99.90;;;;;;5032837;28;20053;-80
2021/01/20 09:42:59;;;;;;;2.70;1.00;;;7.60;99.90;;;;;;5021699;28;20061;-79
2021/01/20 09:45:29;;;;;;;1.85;0.70;;;7.70;99.90;;;;;;5012956;28;20061;-79
2021/01/20 09:47:57;;;;;;;2.22;0.98;;;7.70;99.90;;;;;;5028654;28;20135;-79
2021/01/20 09:50:25;;;;;;;9.40;0.88;;;7.50;99.90;;;;;;5014428;28;20053;-79
2021/01/20 09:52:52;;;;;;;3.03;0.80;;;7.50;99.90;;;;;;5007002;28;20057;-79
2021/01/20 09:55:21;;;;;;;4.93;0.90;;;7.50;99.90;;;;;;5008656;28;20506;-79
2021/01/20 09:57:48;;;;;;;3.10;0.88;;;7.40;99.90;;;;;;5019442;28;20050;-79
2021/01/20 10:00:15;;;;;;;4.10;0.80;;;7.40;99.90;;;;;;5026094;28;20076;-79
2021/01/20 10:02:42;;;;;;;4.28;1.10;;;7.40;99.90;;;;;;5016528;28;20054;-79
2021/01/20 10:05:10;;;;;;;4.53;1.33;;;7.60;99.90;;;;;;5028215;28;20057;-80
2021/01/20 10:07:38;;;;;;;7.05;0.85;;;7.70;99.90;;;;;;5030408;28;20049;-80
2021/01/20 10:10:13;;;;;;;6.05;1.02;;;7.70;99.90;;;;;;5029686;28;20405;-80
2021/01/20 10:12:40;;;;;;;2.47;0.70;;;7.70;99.90;;;;;;5013999;28;20426;-80
2021/01/20 10:15:08;;;;;;;2.08;0.80;;;7.70;99.90;;;;;;5032994;28;20056;-80
2021/01/20 10:17:36;;;;;;;6.28;1.08;;;7.70;99.90;;;;;;5008174;28;20463;-80
2021/01/20 10:20:06;;;;;;;3.45;0.90;;;7.80;99.90;;;;;;5026708;28;20530;-80
2021/01/20 10:22:33;;;;;;;2.65;0.70;;;7.90;99.90;;;;;;5009900;28;20092;-80
2021/01/20 10:25:00;;;;;;;3.90;0.73;;;7.80;99.90;;;;;;5014326;28;20080;-79
2021/01/20 10:27:26;;;;;;;3.03;1.25;;;7.70;99.90;;;;;;5010201;28;20042;-79
2021/01/20 10:29:53;;;;;;;1.77;0.57;;;7.70;99.90;;;;;;5007643;28;20379;-79
2021/01/20 10:32:20;;;;;;;1.80;0.60;;;7.70;99.90;;;;;;5007563;28;20042;-79
2021/01/20 10:34:46;;;;;;;0.90;0.40;;;7.60;99.90;;;;;;5010288;28;20042;-80
2021/01/20 10:37:13;;;;;;;1.33;0.50;;;7.60;99.90;;;;;;5010023;28;20056;-79
2021/01/20 10:39:40;;;;;;;1.95;0.80;;;7.60;99.90;;;;;;5008150;28;20054;-79
2021/01/20 10:42:06;;;;;;;4.07;2.22;;;7.70;99.90;;;;;;5021761;28;20129;-79
2021/01/20 10:44:33;;;;;;;1.60;0.80;;;7.70;99.90;;;;;;5004659;28;20431;-80
2021/01/20 10:46:59;;;;;;;3.17;0.60;;;7.80;99.90;;;;;;5006944;28;20069;-79
2021/01/20 10:49:26;;;;;;;1.88;0.70;;;7.80;99.90;;;;;;5010856;28;20045;-80
2021/01/20 10:51:53;;;;;;;2.55;0.60;;;7.70;99.90;;;;;;5006264;28;20364;-80
2021/01/20 10:54:19;;;;;;;0.90;0.70;;;7.50;99.90;;;;;;5011320;28;20415;-80
2021/01/20 10:56:46;;;;;;;3.63;1.17;;;7.60;99.90;;;;;;5007056;28;20491;-80
2021/01/20 10:59:12;;;;;;;4.03;1.58;;;7.70;99.90;;;;;;5009172;28;20058;-80
2021/01/20 11:01:39;;;;;;;2.78;0.80;;;7.70;99.90;;;;;;5005542;28;20057;-80
2021/01/20 11:04:06;;;;;;;1.70;0.68;;;7.60;99.90;;;;;;5008191;28;20042;-80
2021/01/20 11:06:33;;;;;;;1.45;0.80;;;7.60;99.90;;;;;;5009887;28;20052;-80
2021/01/20 11:08:59;;;;;;;1.38;0.80;;;7.60;99.90;;;;;;5006522;28;20598;-79
2021/01/20 11:11:27;;;;;;;3.17;0.93;;;7.60;99.90;;;;;;5008201;28;20049;-79
2021/01/20 11:13:54;;;;;;;1.42;0.80;;;7.60;99.90;;;;;;5006510;28;20064;-80
2021/01/20 11:16:21;;;;;;;3.58;0.80;;;7.60;99.90;;;;;;5006909;28;20053;-80
2021/01/20 11:18:47;;;;;;;4.60;0.98;;;7.50;99.90;;;;;;5005388;28;20061;-79
2021/01/20 11:21:16;;;;;;;3.08;0.80;;;7.60;99.90;;;;;;5007775;28;20060;-79
2021/01/20 11:23:45;;;;;;;5.60;0.93;;;7.50;99.90;;;;;;5004831;28;20061;-79
2021/01/20 11:26:12;;;;;;;6.03;1.00;;;7.50;99.90;;;;;;5009679;28;20493;-79
2021/01/20 11:28:39;;;;;;;2.35;1.10;;;7.50;99.90;;;;;;5012038;28;20491;-79
2021/01/20 11:31:06;;;;;;;3.10;0.80;;;7.40;99.90;;;;;;5030832;28;20045;-79
2021/01/20 11:33:37;;;;;;;2.92;1.15;;;7.40;99.90;;;;;;5027226;28;20037;-79
2021/01/20 11:36:05;;;;;;;6.05;1.30;;;7.40;99.90;;;;;;5008129;28;20056;-79
2021/01/20 11:38:33;;;;;;;4.22;1.50;;;7.40;99.90;;;;;;5011669;28;20049;-79
2021/01/20 11:41:00;;;;;;;4.25;1.00;;;7.40;99.90;;;;;;5027061;28;20053;-79
2021/01/20 11:43:26;;;;;;;6.43;1.60;;;7.40;99.90;;;;;;5029441;28;20410;-79
2021/01/20 11:45:53;;;;;;;3.20;1.08;;;7.50;99.90;;;;;;5025504;28;20064;-79
2021/01/20 11:48:20;;;;;;;2.25;0.80;;;7.40;99.90;;;;;;5012494;28;20132;-79
2021/01/20 11:50:47;;;;;;;1.67;0.82;;;7.50;99.90;;;;;;5003612;28;20049;-79
2021/01/20 11:53:20;;;;;;;;;;;7.50;99.90;;;;;;5022368;28;20140;-79
2021/01/20 11:55:48;;;;;;;2.92;1.17;;;7.50;99.90;;;;;;5019413;28;20016;-79
2021/01/20 11:58:14;;;;;;;2.38;1.20;;;7.50;99.90;;;;;;5028792;28;20060;-79
2021/01/20 12:00:41;;;;;;;11.23;1.65;;;7.50;99.90;;;;;;5009270;28;20056;-79
2021/01/20 12:03:08;;;;;;;4.03;1.45;;;7.60;99.90;;;;;;5005465;28;20049;-79
2021/01/20 12:05:35;;;;;;;4.25;1.77;;;7.60;99.90;;;;;;4999102;28;20112;-79
2021/01/20 12:08:02;;;;;;;5.63;1.85;;;7.60;99.90;;;;;;5020572;28;20051;-79
2021/01/20 12:10:28;;;;;;;2.75;1.25;;;7.70;99.90;;;;;;5010101;28;20057;-79
2021/01/20 12:12:55;;;;;;;8.00;2.88;;;7.70;99.90;;;;;;5031258;28;20049;-79
2021/01/20 12:15:21;;;;;;;6.70;1.77;;;7.80;99.90;;;;;;5025941;28;20245;-79
2021/01/20 12:17:49;;;;;;;7.97;2.30;;;7.80;99.90;;;;;;5029640;28;20402;-79
2021/01/20 12:20:16;;;;;;;7.28;2.63;;;7.80;99.90;;;;;;5031729;28;20049;-79
2021/01/20 12:22:42;;;;;;;5.75;1.52;;;7.90;99.90;;;;;;5013023;28;20120;-79
2021/01/20 12:25:09;;;;;;;4.07;1.42;;;8.10;99.90;;;;;;5031744;28;20049;-79
2021/01/20 12:27:38;;;;;;;4.70;1.00;;;8.10;99.90;;;;;;5032655;28;20746;-79
2021/01/20 12:30:06;;;;;;;2.95;1.13;;;8.10;99.90;;;;;;5034104;28;20470;-79
2021/01/20 12:32:33;;;;;;;4.70;1.10;;;8.10;99.90;;;;;;5014869;28;20414;-79
2021/01/20 12:34:59;;;;;;;5.50;0.88;;;8.10;99.90;;;;;;5013407;28;20069;-79
2021/01/20 12:37:26;;;;;;;2.95;1.20;;;8.20;99.90;;;;;;5027836;28;20072;-79
2021/01/20 12:39:53;;;;;;;3.38;0.80;;;8.20;99.90;;;;;;5007850;28;20505;-79
2021/01/20 12:42:19;;;;;;;1.95;0.60;;;8.20;99.90;;;;;;5015569;28;20068;-79
2021/01/20 12:44:45;;;;;;;1.55;0.60;;;8.10;99.90;;;;;;5014251;28;20060;-79
2021/01/20 12:47:12;;;;;;;1.55;0.60;;;8.00;99.90;;;;;;5023699;28;20065;-79
2021/01/20 12:49:39;;;;;;;2.13;0.70;;;8.00;99.90;;;;;;5029442;28;20418;-79
2021/01/20 12:52:05;;;;;;;2.00;0.60;;;7.90;99.90;;;;;;5013508;28;20471;-79
2021/01/20 12:54:32;;;;;;;2.95;0.60;;;7.90;99.90;;;;;;5026456;28;20045;-79
2021/01/20 12:56:58;;;;;;;5.30;1.23;;;8.00;99.90;;;;;;5025235;28;20514;-79
2021/01/20 12:59:25;;;;;;;5.18;0.70;;;8.00;99.90;;;;;;5028184;28;20060;-79
2021/01/20 13:01:51;;;;;;;4.70;0.73;;;8.00;99.90;;;;;;5029531;28;20055;-79
2021/01/20 13:04:18;;;;;;;5.32;0.73;;;8.10;99.90;;;;;;5017591;28;20410;-79
2021/01/20 13:06:46;;;;;;;2.95;0.85;;;8.20;99.90;;;;;;5027776;28;20487;-79